sensor_id;sensor_type;location;lat;lon;timestamp;P1;durP1;ratioP1;P2;durP2;ratioP2
13981;SDS011;7065;50.880;5.502;2022-09-17T00:02:00;3.78;;;2.28;;
13981;SDS011;7065;50.880;5.502;2022-09-17T00:04:31;7.45;;;1.63;;
13981;SDS011;7065;50.880;5.502;2022-09-17T00:06:57;10.07;;;2.00;;
13981;SDS011;7065;50.880;5.502;2022-09-17T00:09:22;5.68;;;1.80;;
13981;SDS011;7065;50.880;5.502;2022-09-17T00:11:49;5.20;;;1.75;;
13981;SDS011;7065;50.880;5.502;2022-09-17T00:14:15;6.97;;;2.30;;
13981;SDS011;7065;50.880;5.502;2022-09-17T00:16:45;6.85;;;1.98;;
13981;SDS011;7065;50.880;5.502;2022-09-17T00:19:21;9.10;;;2.17;;
13981;SDS011;7065;50.880;5.502;2022-09-17T00:21:47;7.57;;;2.40;;
13981;SDS011;7065;50.880;5.502;2022-09-17T00:24:14;6.40;;;2.10;;
13981;SDS011;7065;50.880;5.502;2022-09-17T00:26:41;5.72;;;1.60;;
13981;SDS011;7065;50.880;5.502;2022-09-17T00:29:07;5.22;;;2.13;;
13981;SDS011;7065;50.880;5.502;2022-09-17T00:31:34;6.60;;;1.80;;
13981;SDS011;7065;50.880;5.502;2022-09-17T00:34:00;6.55;;;2.17;;
13981;SDS011;7065;50.880;5.502;2022-09-17T00:36:28;8.02;;;1.80;;
13981;SDS011;7065;50.880;5.502;2022-09-17T00:38:55;5.90;;;1.80;;
13981;SDS011;7065;50.880;5.502;2022-09-17T00:41:24;5.45;;;1.80;;
13981;SDS011;7065;50.880;5.502;2022-09-17T00:43:52;6.53;;;1.85;;
13981;SDS011;7065;50.880;5.502;2022-09-17T00:46:25;5.97;;;2.25;;
13981;SDS011;7065;50.880;5.502;2022-09-17T00:49:06;6.45;;;1.95;;
13981;SDS011;7065;50.880;5.502;2022-09-17T00:51:38;7.13;;;2.00;;
13981;SDS011;7065;50.880;5.502;2022-09-17T00:54:09;8.15;;;2.15;;
13981;SDS011;7065;50.880;5.502;2022-09-17T00:56:37;11.20;;;2.55;;
13981;SDS011;7065;50.880;5.502;2022-09-17T00:59:04;5.47;;;1.95;;
13981;SDS011;7065;50.880;5.502;2022-09-17T01:01:32;7.35;;;2.05;;
13981;SDS011;7065;50.880;5.502;2022-09-17T01:03:58;6.40;;;2.10;;
13981;SDS011;7065;50.880;5.502;2022-09-17T01:09:11;9.00;;;2.42;;
13981;SDS011;7065;50.880;5.502;2022-09-17T01:26:00;8.38;;;2.10;;
13981;SDS011;7065;50.880;5.502;2022-09-17T01:34:46;8.27;;;1.85;;
13981;SDS011;7065;50.880;5.502;2022-09-17T01:37:35;11.55;;;2.25;;
13981;SDS011;7065;50.880;5.502;2022-09-17T01:40:16;12.55;;;2.63;;
13981;SDS011;7065;50.880;5.502;2022-09-17T01:45:41;8.43;;;2.33;;
13981;SDS011;7065;50.880;5.502;2022-09-17T01:48:20;4.13;;;1.98;;
13981;SDS011;7065;50.880;5.502;2022-09-17T01:50:55;10.18;;;2.35;;
13981;SDS011;7065;50.880;5.502;2022-09-17T01:53:27;11.20;;;2.70;;
13981;SDS011;7065;50.880;5.502;2022-09-17T01:55:56;6.97;;;2.40;;
13981;SDS011;7065;50.880;5.502;2022-09-17T01:58:31;12.25;;;2.25;;
13981;SDS011;7065;50.880;5.502;2022-09-17T02:01:01;6.40;;;1.92;;
13981;SDS011;7065;50.880;5.502;2022-09-17T02:03:34;8.80;;;2.58;;
13981;SDS011;7065;50.880;5.502;2022-09-17T02:06:12;6.60;;;2.10;;
13981;SDS011;7065;50.880;5.502;2022-09-17T02:11:17;8.18;;;2.25;;
13981;SDS011;7065;50.880;5.502;2022-09-17T02:16:19;10.25;;;2.55;;
13981;SDS011;7065;50.880;5.502;2022-09-17T02:24:36;6.78;;;2.30;;
13981;SDS011;7065;50.880;5.502;2022-09-17T02:30:07;10.18;;;2.58;;
13981;SDS011;7065;50.880;5.502;2022-09-17T02:32:33;10.48;;;2.00;;
13981;SDS011;7065;50.880;5.502;2022-09-17T02:34:59;9.57;;;2.60;;
13981;SDS011;7065;50.880;5.502;2022-09-17T02:37:25;8.48;;;2.53;;
13981;SDS011;7065;50.880;5.502;2022-09-17T02:39:51;10.20;;;2.20;;
13981;SDS011;7065;50.880;5.502;2022-09-17T02:48:23;8.27;;;2.40;;
13981;SDS011;7065;50.880;5.502;2022-09-17T03:01:39;8.10;;;2.00;;
13981;SDS011;7065;50.880;5.502;2022-09-17T03:04:09;8.45;;;2.28;;
13981;SDS011;7065;50.880;5.502;2022-09-17T03:06:39;9.90;;;2.47;;
13981;SDS011;7065;50.880;5.502;2022-09-17T03:09:06;10.93;;;2.50;;
13981;SDS011;7065;50.880;5.502;2022-09-17T03:11:32;9.13;;;2.38;;
13981;SDS011;7065;50.880;5.502;2022-09-17T03:13:58;9.18;;;2.50;;
13981;SDS011;7065;50.880;5.502;2022-09-17T03:16:24;9.27;;;2.33;;
13981;SDS011;7065;50.880;5.502;2022-09-17T03:18:49;5.03;;;2.40;;
13981;SDS011;7065;50.880;5.502;2022-09-17T03:21:15;7.47;;;2.50;;
13981;SDS011;7065;50.880;5.502;2022-09-17T03:23:41;8.15;;;2.72;;
13981;SDS011;7065;50.880;5.502;2022-09-17T03:26:08;8.35;;;2.50;;
13981;SDS011;7065;50.880;5.502;2022-09-17T03:28:33;11.80;;;2.30;;
13981;SDS011;7065;50.880;5.502;2022-09-17T03:30:59;10.43;;;2.20;;
13981;SDS011;7065;50.880;5.502;2022-09-17T03:33:25;6.78;;;2.08;;
13981;SDS011;7065;50.880;5.502;2022-09-17T03:35:51;10.98;;;2.38;;
13981;SDS011;7065;50.880;5.502;2022-09-17T03:38:17;11.73;;;3.28;;
13981;SDS011;7065;50.880;5.502;2022-09-17T03:40:43;9.25;;;2.60;;
13981;SDS011;7065;50.880;5.502;2022-09-17T03:43:09;8.35;;;2.80;;
13981;SDS011;7065;50.880;5.502;2022-09-17T03:45:35;8.02;;;2.30;;
13981;SDS011;7065;50.880;5.502;2022-09-17T03:48:01;8.75;;;2.30;;
13981;SDS011;7065;50.880;5.502;2022-09-17T03:50:27;11.02;;;2.20;;
13981;SDS011;7065;50.880;5.502;2022-09-17T03:52:53;6.80;;;2.13;;
13981;SDS011;7065;50.880;5.502;2022-09-17T03:55:19;8.10;;;1.98;;
13981;SDS011;7065;50.880;5.502;2022-09-17T03:57:44;12.40;;;2.55;;
13981;SDS011;7065;50.880;5.502;2022-09-17T04:00:11;11.65;;;2.70;;
13981;SDS011;7065;50.880;5.502;2022-09-17T04:02:38;8.80;;;2.05;;
13981;SDS011;7065;50.880;5.502;2022-09-17T04:05:03;7.70;;;2.33;;
13981;SDS011;7065;50.880;5.502;2022-09-17T04:07:29;8.80;;;2.50;;
13981;SDS011;7065;50.880;5.502;2022-09-17T04:09:55;7.97;;;2.08;;
13981;SDS011;7065;50.880;5.502;2022-09-17T04:12:21;8.60;;;2.22;;
13981;SDS011;7065;50.880;5.502;2022-09-17T04:14:47;6.25;;;2.08;;
13981;SDS011;7065;50.880;5.502;2022-09-17T04:17:14;12.10;;;1.95;;
13981;SDS011;7065;50.880;5.502;2022-09-17T04:19:42;10.65;;;2.28;;
13981;SDS011;7065;50.880;5.502;2022-09-17T04:22:08;8.27;;;2.15;;
13981;SDS011;7065;50.880;5.502;2022-09-17T04:24:34;6.70;;;2.55;;
13981;SDS011;7065;50.880;5.502;2022-09-17T04:27:00;8.77;;;1.90;;
13981;SDS011;7065;50.880;5.502;2022-09-17T04:29:26;9.80;;;2.13;;
13981;SDS011;7065;50.880;5.502;2022-09-17T04:31:52;11.07;;;2.47;;
13981;SDS011;7065;50.880;5.502;2022-09-17T04:34:18;8.57;;;2.08;;
13981;SDS011;7065;50.880;5.502;2022-09-17T04:36:44;7.05;;;2.00;;
13981;SDS011;7065;50.880;5.502;2022-09-17T04:39:10;10.73;;;2.05;;
13981;SDS011;7065;50.880;5.502;2022-09-17T04:41:35;10.43;;;2.70;;
13981;SDS011;7065;50.880;5.502;2022-09-17T04:44:01;6.75;;;2.30;;
13981;SDS011;7065;50.880;5.502;2022-09-17T04:46:27;7.97;;;2.20;;
13981;SDS011;7065;50.880;5.502;2022-09-17T04:48:53;8.82;;;2.35;;
13981;SDS011;7065;50.880;5.502;2022-09-17T04:51:19;11.65;;;2.45;;
13981;SDS011;7065;50.880;5.502;2022-09-17T04:53:45;7.32;;;2.30;;
13981;SDS011;7065;50.880;5.502;2022-09-17T04:56:10;7.10;;;2.10;;
13981;SDS011;7065;50.880;5.502;2022-09-17T04:58:36;8.93;;;2.13;;
13981;SDS011;7065;50.880;5.502;2022-09-17T05:01:02;7.50;;;2.13;;
13981;SDS011;7065;50.880;5.502;2022-09-17T05:03:28;12.73;;;2.03;;
13981;SDS011;7065;50.880;5.502;2022-09-17T05:05:53;8.07;;;2.17;;
13981;SDS011;7065;50.880;5.502;2022-09-17T05:08:19;11.40;;;2.45;;
13981;SDS011;7065;50.880;5.502;2022-09-17T05:10:48;10.52;;;2.55;;
13981;SDS011;7065;50.880;5.502;2022-09-17T05:13:15;9.02;;;1.88;;
13981;SDS011;7065;50.880;5.502;2022-09-17T05:15:41;12.73;;;2.28;;
13981;SDS011;7065;50.880;5.502;2022-09-17T05:18:07;10.23;;;2.35;;
13981;SDS011;7065;50.880;5.502;2022-09-17T05:20:32;13.82;;;2.42;;
13981;SDS011;7065;50.880;5.502;2022-09-17T05:22:58;8.70;;;2.10;;
13981;SDS011;7065;50.880;5.502;2022-09-17T05:25:24;10.15;;;2.28;;
13981;SDS011;7065;50.880;5.502;2022-09-17T05:27:50;10.30;;;2.15;;
13981;SDS011;7065;50.880;5.502;2022-09-17T05:30:17;5.50;;;2.20;;
13981;SDS011;7065;50.880;5.502;2022-09-17T05:32:43;10.85;;;2.65;;
13981;SDS011;7065;50.880;5.502;2022-09-17T05:35:09;11.48;;;2.38;;
13981;SDS011;7065;50.880;5.502;2022-09-17T05:37:35;7.80;;;2.50;;
13981;SDS011;7065;50.880;5.502;2022-09-17T05:40:05;8.88;;;2.63;;
13981;SDS011;7065;50.880;5.502;2022-09-17T05:42:32;10.20;;;2.38;;
13981;SDS011;7065;50.880;5.502;2022-09-17T05:44:58;5.90;;;2.60;;
13981;SDS011;7065;50.880;5.502;2022-09-17T05:47:24;11.48;;;2.60;;
13981;SDS011;7065;50.880;5.502;2022-09-17T05:49:50;11.52;;;2.53;;
13981;SDS011;7065;50.880;5.502;2022-09-17T05:52:15;13.63;;;2.70;;
13981;SDS011;7065;50.880;5.502;2022-09-17T05:54:41;8.88;;;2.70;;
13981;SDS011;7065;50.880;5.502;2022-09-17T05:57:07;11.93;;;2.38;;
13981;SDS011;7065;50.880;5.502;2022-09-17T05:59:33;9.13;;;2.65;;
13981;SDS011;7065;50.880;5.502;2022-09-17T06:02:00;11.43;;;2.80;;
13981;SDS011;7065;50.880;5.502;2022-09-17T06:04:25;11.27;;;2.65;;
13981;SDS011;7065;50.880;5.502;2022-09-17T06:06:51;10.70;;;2.45;;
13981;SDS011;7065;50.880;5.502;2022-09-17T06:09:17;10.20;;;2.63;;
13981;SDS011;7065;50.880;5.502;2022-09-17T06:11:42;9.77;;;2.70;;
13981;SDS011;7065;50.880;5.502;2022-09-17T06:14:08;11.60;;;2.47;;
13981;SDS011;7065;50.880;5.502;2022-09-17T06:16:34;9.73;;;2.40;;
13981;SDS011;7065;50.880;5.502;2022-09-17T06:19:00;11.52;;;3.20;;
13981;SDS011;7065;50.880;5.502;2022-09-17T06:21:27;9.45;;;2.40;;
13981;SDS011;7065;50.880;5.502;2022-09-17T06:23:52;8.90;;;2.92;;
13981;SDS011;7065;50.880;5.502;2022-09-17T06:26:19;15.27;;;3.08;;
13981;SDS011;7065;50.880;5.502;2022-09-17T06:28:45;12.02;;;2.83;;
13981;SDS011;7065;50.880;5.502;2022-09-17T06:31:11;12.05;;;3.35;;
13981;SDS011;7065;50.880;5.502;2022-09-17T06:33:37;11.27;;;2.95;;
13981;SDS011;7065;50.880;5.502;2022-09-17T06:36:04;13.70;;;3.45;;
13981;SDS011;7065;50.880;5.502;2022-09-17T06:38:32;15.05;;;3.03;;
13981;SDS011;7065;50.880;5.502;2022-09-17T06:41:00;14.15;;;3.25;;
13981;SDS011;7065;50.880;5.502;2022-09-17T06:43:26;9.80;;;2.40;;
13981;SDS011;7065;50.880;5.502;2022-09-17T06:45:52;12.93;;;2.55;;
13981;SDS011;7065;50.880;5.502;2022-09-17T06:48:19;14.95;;;2.55;;
13981;SDS011;7065;50.880;5.502;2022-09-17T06:50:45;10.77;;;2.45;;
13981;SDS011;7065;50.880;5.502;2022-09-17T06:53:12;13.95;;;3.30;;
13981;SDS011;7065;50.880;5.502;2022-09-17T06:55:37;11.65;;;2.80;;
13981;SDS011;7065;50.880;5.502;2022-09-17T06:58:03;9.02;;;2.50;;
13981;SDS011;7065;50.880;5.502;2022-09-17T07:00:28;11.75;;;2.78;;
13981;SDS011;7065;50.880;5.502;2022-09-17T07:02:57;9.68;;;2.88;;
13981;SDS011;7065;50.880;5.502;2022-09-17T07:05:25;15.27;;;3.20;;
13981;SDS011;7065;50.880;5.502;2022-09-17T07:07:51;9.40;;;2.83;;
13981;SDS011;7065;50.880;5.502;2022-09-17T07:10:17;16.05;;;3.30;;
13981;SDS011;7065;50.880;5.502;2022-09-17T07:12:44;10.88;;;2.40;;
13981;SDS011;7065;50.880;5.502;2022-09-17T07:15:10;8.52;;;3.17;;
13981;SDS011;7065;50.880;5.502;2022-09-17T07:17:36;16.35;;;2.63;;
13981;SDS011;7065;50.880;5.502;2022-09-17T07:20:05;12.80;;;3.10;;
13981;SDS011;7065;50.880;5.502;2022-09-17T07:22:32;9.55;;;2.55;;
13981;SDS011;7065;50.880;5.502;2022-09-17T07:24:57;11.85;;;2.45;;
13981;SDS011;7065;50.880;5.502;2022-09-17T07:27:26;8.93;;;2.75;;
13981;SDS011;7065;50.880;5.502;2022-09-17T07:29:52;11.45;;;2.72;;
13981;SDS011;7065;50.880;5.502;2022-09-17T07:32:18;8.20;;;2.45;;
13981;SDS011;7065;50.880;5.502;2022-09-17T07:34:44;10.80;;;3.03;;
13981;SDS011;7065;50.880;5.502;2022-09-17T07:37:09;11.25;;;2.58;;
13981;SDS011;7065;50.880;5.502;2022-09-17T07:39:36;7.57;;;1.90;;
13981;SDS011;7065;50.880;5.502;2022-09-17T07:42:02;13.05;;;2.50;;
13981;SDS011;7065;50.880;5.502;2022-09-17T07:44:28;12.98;;;2.40;;
13981;SDS011;7065;50.880;5.502;2022-09-17T07:46:54;12.13;;;2.55;;
13981;SDS011;7065;50.880;5.502;2022-09-17T07:49:20;11.82;;;2.38;;
13981;SDS011;7065;50.880;5.502;2022-09-17T07:51:46;9.80;;;2.22;;
13981;SDS011;7065;50.880;5.502;2022-09-17T07:54:12;8.57;;;2.38;;
13981;SDS011;7065;50.880;5.502;2022-09-17T07:56:38;6.10;;;2.33;;
13981;SDS011;7065;50.880;5.502;2022-09-17T07:59:04;12.63;;;2.22;;
13981;SDS011;7065;50.880;5.502;2022-09-17T08:01:32;8.50;;;1.70;;
13981;SDS011;7065;50.880;5.502;2022-09-17T08:04:00;7.68;;;1.85;;
13981;SDS011;7065;50.880;5.502;2022-09-17T08:06:27;11.63;;;2.47;;
13981;SDS011;7065;50.880;5.502;2022-09-17T08:08:56;8.93;;;2.00;;
13981;SDS011;7065;50.880;5.502;2022-09-17T08:11:24;6.32;;;1.60;;
13981;SDS011;7065;50.880;5.502;2022-09-17T08:13:52;5.80;;;1.75;;
13981;SDS011;7065;50.880;5.502;2022-09-17T08:16:19;7.85;;;1.48;;
13981;SDS011;7065;50.880;5.502;2022-09-17T08:18:46;7.70;;;1.52;;
13981;SDS011;7065;50.880;5.502;2022-09-17T08:21:14;5.72;;;1.27;;
13981;SDS011;7065;50.880;5.502;2022-09-17T08:23:42;3.95;;;1.27;;
13981;SDS011;7065;50.880;5.502;2022-09-17T08:26:11;4.80;;;1.40;;
13981;SDS011;7065;50.880;5.502;2022-09-17T08:28:39;7.50;;;1.52;;
13981;SDS011;7065;50.880;5.502;2022-09-17T08:31:10;8.65;;;1.63;;
13981;SDS011;7065;50.880;5.502;2022-09-17T08:33:37;3.40;;;1.08;;
13981;SDS011;7065;50.880;5.502;2022-09-17T08:36:04;9.68;;;1.65;;
13981;SDS011;7065;50.880;5.502;2022-09-17T08:38:32;4.70;;;1.45;;
13981;SDS011;7065;50.880;5.502;2022-09-17T08:43:37;6.47;;;1.75;;
13981;SDS011;7065;50.880;5.502;2022-09-17T08:46:04;8.68;;;1.70;;
13981;SDS011;7065;50.880;5.502;2022-09-17T08:48:37;5.93;;;1.40;;
13981;SDS011;7065;50.880;5.502;2022-09-17T08:51:22;6.78;;;1.73;;
13981;SDS011;7065;50.880;5.502;2022-09-17T08:56:38;6.40;;;1.45;;
13981;SDS011;7065;50.880;5.502;2022-09-17T08:59:08;5.85;;;1.63;;
13981;SDS011;7065;50.880;5.502;2022-09-17T09:02:01;5.20;;;1.45;;
13981;SDS011;7065;50.880;5.502;2022-09-17T09:07:27;8.02;;;1.30;;
13981;SDS011;7065;50.880;5.502;2022-09-17T09:12:31;4.93;;;1.10;;
13981;SDS011;7065;50.880;5.502;2022-09-17T09:15:01;4.47;;;1.35;;
13981;SDS011;7065;50.880;5.502;2022-09-17T09:17:37;5.10;;;1.35;;
13981;SDS011;7065;50.880;5.502;2022-09-17T09:20:12;5.43;;;1.58;;
13981;SDS011;7065;50.880;5.502;2022-09-17T09:22:48;6.35;;;1.45;;
13981;SDS011;7065;50.880;5.502;2022-09-17T09:25:22;5.55;;;1.92;;
13981;SDS011;7065;50.880;5.502;2022-09-17T09:28:14;3.40;;;2.20;;
13981;SDS011;7065;50.880;5.502;2022-09-17T09:33:35;8.85;;;1.25;;
13981;SDS011;7065;50.880;5.502;2022-09-17T09:36:05;7.05;;;1.85;;
13981;SDS011;7065;50.880;5.502;2022-09-17T09:38:34;3.40;;;1.50;;
13981;SDS011;7065;50.880;5.502;2022-09-17T09:41:11;3.92;;;1.13;;
13981;SDS011;7065;50.880;5.502;2022-09-17T09:49:13;4.80;;;1.42;;
13981;SDS011;7065;50.880;5.502;2022-09-17T09:54:22;6.82;;;1.50;;
13981;SDS011;7065;50.880;5.502;2022-09-17T09:57:09;4.30;;;1.20;;
13981;SDS011;7065;50.880;5.502;2022-09-17T09:59:39;4.75;;;1.20;;
13981;SDS011;7065;50.880;5.502;2022-09-17T10:02:08;6.82;;;1.73;;
13981;SDS011;7065;50.880;5.502;2022-09-17T10:04:35;4.15;;;1.20;;
13981;SDS011;7065;50.880;5.502;2022-09-17T10:07:02;5.28;;;1.60;;
13981;SDS011;7065;50.880;5.502;2022-09-17T10:09:31;4.43;;;1.02;;
13981;SDS011;7065;50.880;5.502;2022-09-17T10:12:32;5.60;;;1.40;;
13981;SDS011;7065;50.880;5.502;2022-09-17T10:14:51;7.07;;;1.58;;
13981;SDS011;7065;50.880;5.502;2022-09-17T10:17:19;5.15;;;1.45;;
13981;SDS011;7065;50.880;5.502;2022-09-17T10:19:46;4.40;;;2.20;;
13981;SDS011;7065;50.880;5.502;2022-09-17T10:22:32;4.60;;;1.30;;
13981;SDS011;7065;50.880;5.502;2022-09-17T10:24:59;4.00;;;1.30;;
13981;SDS011;7065;50.880;5.502;2022-09-17T10:27:27;3.53;;;1.02;;
13981;SDS011;7065;50.880;5.502;2022-09-17T10:32:27;4.53;;;1.27;;
13981;SDS011;7065;50.880;5.502;2022-09-17T10:34:56;5.22;;;1.20;;
13981;SDS011;7065;50.880;5.502;2022-09-17T10:37:46;7.05;;;1.25;;
13981;SDS011;7065;50.880;5.502;2022-09-17T10:42:49;4.28;;;1.55;;
13981;SDS011;7065;50.880;5.502;2022-09-17T10:45:25;5.65;;;1.30;;
13981;SDS011;7065;50.880;5.502;2022-09-17T10:47:52;4.60;;;1.08;;
13981;SDS011;7065;50.880;5.502;2022-09-17T10:50:27;5.68;;;1.23;;
13981;SDS011;7065;50.880;5.502;2022-09-17T10:52:56;4.38;;;1.40;;
13981;SDS011;7065;50.880;5.502;2022-09-17T10:55:36;4.30;;;1.23;;
13981;SDS011;7065;50.880;5.502;2022-09-17T10:58:11;6.43;;;2.13;;
13981;SDS011;7065;50.880;5.502;2022-09-17T11:01:25;3.08;;;1.30;;
13981;SDS011;7065;50.880;5.502;2022-09-17T11:12:46;5.88;;;1.20;;
13981;SDS011;7065;50.880;5.502;2022-09-17T11:18:33;5.97;;;1.23;;
13981;SDS011;7065;50.880;5.502;2022-09-17T11:21:08;7.65;;;1.70;;
13981;SDS011;7065;50.880;5.502;2022-09-17T11:26:31;7.07;;;1.83;;
13981;SDS011;7065;50.880;5.502;2022-09-17T11:34:29;3.53;;;1.50;;
13981;SDS011;7065;50.880;5.502;2022-09-17T11:42:21;3.65;;;1.20;;
13981;SDS011;7065;50.880;5.502;2022-09-17T11:44:57;3.00;;;1.02;;
13981;SDS011;7065;50.880;5.502;2022-09-17T11:47:45;5.07;;;0.82;;
13981;SDS011;7065;50.880;5.502;2022-09-17T11:50:43;1.90;;;0.70;;
13981;SDS011;7065;50.880;5.502;2022-09-17T11:53:18;4.05;;;0.90;;
13981;SDS011;7065;50.880;5.502;2022-09-17T11:55:58;4.57;;;0.98;;
13981;SDS011;7065;50.880;5.502;2022-09-17T12:01:10;4.68;;;0.60;;
13981;SDS011;7065;50.880;5.502;2022-09-17T12:03:48;2.50;;;0.70;;
13981;SDS011;7065;50.880;5.502;2022-09-17T12:06:24;2.17;;;0.47;;
13981;SDS011;7065;50.880;5.502;2022-09-17T12:09:03;1.40;;;0.40;;
13981;SDS011;7065;50.880;5.502;2022-09-17T12:11:46;4.35;;;0.90;;
13981;SDS011;7065;50.880;5.502;2022-09-17T12:14:20;3.05;;;0.55;;
13981;SDS011;7065;50.880;5.502;2022-09-17T12:16:58;1.40;;;0.43;;
13981;SDS011;7065;50.880;5.502;2022-09-17T12:19:43;1.85;;;0.60;;
13981;SDS011;7065;50.880;5.502;2022-09-17T12:22:14;2.28;;;0.50;;
13981;SDS011;7065;50.880;5.502;2022-09-17T12:24:49;3.97;;;0.90;;
13981;SDS011;7065;50.880;5.502;2022-09-17T12:30:04;4.43;;;0.68;;
13981;SDS011;7065;50.880;5.502;2022-09-17T12:40:59;3.45;;;0.55;;
13981;SDS011;7065;50.880;5.502;2022-09-17T12:43:53;2.58;;;0.63;;
13981;SDS011;7065;50.880;5.502;2022-09-17T13:00:15;1.52;;;0.50;;
13981;SDS011;7065;50.880;5.502;2022-09-17T13:02:44;1.77;;;0.60;;
13981;SDS011;7065;50.880;5.502;2022-09-17T13:14:19;3.30;;;0.65;;
13981;SDS011;7065;50.880;5.502;2022-09-17T13:17:27;3.90;;;0.70;;
13981;SDS011;7065;50.880;5.502;2022-09-17T13:22:47;4.00;;;1.00;;
13981;SDS011;7065;50.880;5.502;2022-09-17T13:25:16;3.83;;;0.95;;
13981;SDS011;7065;50.880;5.502;2022-09-17T13:27:43;5.18;;;0.85;;
13981;SDS011;7065;50.880;5.502;2022-09-17T13:30:11;5.80;;;1.00;;
13981;SDS011;7065;50.880;5.502;2022-09-17T13:32:41;2.55;;;0.77;;
13981;SDS011;7065;50.880;5.502;2022-09-17T13:37:39;3.78;;;1.05;;
13981;SDS011;7065;50.880;5.502;2022-09-17T13:40:19;2.92;;;0.98;;
13981;SDS011;7065;50.880;5.502;2022-09-17T13:42:50;3.42;;;0.90;;
13981;SDS011;7065;50.880;5.502;2022-09-17T13:45:19;2.58;;;0.88;;
13981;SDS011;7065;50.880;5.502;2022-09-17T13:47:50;3.42;;;1.20;;
13981;SDS011;7065;50.880;5.502;2022-09-17T13:50:36;7.68;;;1.23;;
13981;SDS011;7065;50.880;5.502;2022-09-17T13:55:39;4.75;;;1.00;;
13981;SDS011;7065;50.880;5.502;2022-09-17T14:08:30;3.92;;;1.05;;
13981;SDS011;7065;50.880;5.502;2022-09-17T14:22:15;4.60;;;0.80;;
13981;SDS011;7065;50.880;5.502;2022-09-17T14:24:47;3.72;;;1.17;;
13981;SDS011;7065;50.880;5.502;2022-09-17T14:30:02;6.03;;;1.25;;
13981;SDS011;7065;50.880;5.502;2022-09-17T14:35:23;3.78;;;0.80;;
13981;SDS011;7065;50.880;5.502;2022-09-17T14:37:58;6.32;;;1.10;;
13981;SDS011;7065;50.880;5.502;2022-09-17T14:40:49;2.63;;;1.02;;
13981;SDS011;7065;50.880;5.502;2022-09-17T14:43:32;5.20;;;1.50;;
13981;SDS011;7065;50.880;5.502;2022-09-17T14:46:23;4.50;;;1.52;;
13981;SDS011;7065;50.880;5.502;2022-09-17T14:48:53;6.38;;;1.20;;
13981;SDS011;7065;50.880;5.502;2022-09-17T14:53:45;4.38;;;1.23;;
13981;SDS011;7065;50.880;5.502;2022-09-17T14:56:20;2.53;;;1.00;;
13981;SDS011;7065;50.880;5.502;2022-09-17T14:58:48;5.20;;;1.17;;
13981;SDS011;7065;50.880;5.502;2022-09-17T15:01:21;4.30;;;1.25;;
13981;SDS011;7065;50.880;5.502;2022-09-17T15:03:48;4.57;;;1.00;;
13981;SDS011;7065;50.880;5.502;2022-09-17T15:06:21;4.65;;;1.00;;
13981;SDS011;7065;50.880;5.502;2022-09-17T15:08:47;5.82;;;1.45;;
13981;SDS011;7065;50.880;5.502;2022-09-17T15:11:14;4.38;;;1.10;;
13981;SDS011;7065;50.880;5.502;2022-09-17T15:13:45;5.65;;;1.55;;
13981;SDS011;7065;50.880;5.502;2022-09-17T15:16:21;3.67;;;1.13;;
13981;SDS011;7065;50.880;5.502;2022-09-17T15:18:58;5.05;;;1.10;;
13981;SDS011;7065;50.880;5.502;2022-09-17T15:21:41;3.65;;;0.95;;
13981;SDS011;7065;50.880;5.502;2022-09-17T15:24:12;8.23;;;1.45;;
13981;SDS011;7065;50.880;5.502;2022-09-17T15:26:52;7.70;;;1.52;;
13981;SDS011;7065;50.880;5.502;2022-09-17T15:29:23;6.80;;;1.50;;
13981;SDS011;7065;50.880;5.502;2022-09-17T15:31:52;4.47;;;1.52;;
13981;SDS011;7065;50.880;5.502;2022-09-17T15:34:18;2.47;;;0.95;;
13981;SDS011;7065;50.880;5.502;2022-09-17T15:37:01;7.13;;;1.10;;
13981;SDS011;7065;50.880;5.502;2022-09-17T15:39:38;5.32;;;2.03;;
13981;SDS011;7065;50.880;5.502;2022-09-17T15:42:15;5.72;;;1.50;;
13981;SDS011;7065;50.880;5.502;2022-09-17T15:44:43;4.93;;;1.65;;
13981;SDS011;7065;50.880;5.502;2022-09-17T15:50:15;3.38;;;1.08;;
13981;SDS011;7065;50.880;5.502;2022-09-17T15:53:19;2.20;;;0.80;;
13981;SDS011;7065;50.880;5.502;2022-09-17T16:08:42;2.90;;;1.13;;
13981;SDS011;7065;50.880;5.502;2022-09-17T16:11:08;4.38;;;1.15;;
13981;SDS011;7065;50.880;5.502;2022-09-17T16:13:34;4.97;;;1.30;;
13981;SDS011;7065;50.880;5.502;2022-09-17T16:15:59;5.88;;;1.20;;
13981;SDS011;7065;50.880;5.502;2022-09-17T16:18:25;5.18;;;1.23;;
13981;SDS011;7065;50.880;5.502;2022-09-17T16:20:51;2.65;;;1.00;;
13981;SDS011;7065;50.880;5.502;2022-09-17T16:23:17;7.97;;;1.48;;
13981;SDS011;7065;50.880;5.502;2022-09-17T16:25:42;6.00;;;1.55;;
13981;SDS011;7065;50.880;5.502;2022-09-17T16:28:09;4.30;;;1.00;;
13981;SDS011;7065;50.880;5.502;2022-09-17T16:30:42;6.10;;;1.50;;
13981;SDS011;7065;50.880;5.502;2022-09-17T16:33:10;5.30;;;1.45;;
13981;SDS011;7065;50.880;5.502;2022-09-17T16:35:36;4.97;;;1.58;;
13981;SDS011;7065;50.880;5.502;2022-09-17T16:38:05;8.52;;;1.50;;
13981;SDS011;7065;50.880;5.502;2022-09-17T16:40:32;3.80;;;1.00;;
13981;SDS011;7065;50.880;5.502;2022-09-17T16:43:01;5.90;;;1.27;;
13981;SDS011;7065;50.880;5.502;2022-09-17T16:45:28;4.88;;;1.65;;
13981;SDS011;7065;50.880;5.502;2022-09-17T16:47:54;5.00;;;1.23;;
13981;SDS011;7065;50.880;5.502;2022-09-17T16:50:21;4.32;;;1.02;;
13981;SDS011;7065;50.880;5.502;2022-09-17T16:52:46;8.73;;;1.42;;
13981;SDS011;7065;50.880;5.502;2022-09-17T16:55:13;5.35;;;1.75;;
13981;SDS011;7065;50.880;5.502;2022-09-17T16:57:40;5.82;;;1.52;;
13981;SDS011;7065;50.880;5.502;2022-09-17T17:00:07;6.82;;;1.20;;
13981;SDS011;7065;50.880;5.502;2022-09-17T17:02:38;4.68;;;1.52;;
13981;SDS011;7065;50.880;5.502;2022-09-17T17:05:04;10.43;;;1.60;;
13981;SDS011;7065;50.880;5.502;2022-09-17T17:07:30;4.32;;;1.30;;
13981;SDS011;7065;50.880;5.502;2022-09-17T17:09:56;4.93;;;1.55;;
13981;SDS011;7065;50.880;5.502;2022-09-17T17:12:26;4.30;;;1.48;;
13981;SDS011;7065;50.880;5.502;2022-09-17T17:14:52;6.88;;;1.83;;
13981;SDS011;7065;50.880;5.502;2022-09-17T17:17:18;7.63;;;1.50;;
13981;SDS011;7065;50.880;5.502;2022-09-17T17:19:45;8.63;;;1.48;;
13981;SDS011;7065;50.880;5.502;2022-09-17T17:22:11;5.15;;;1.50;;
13981;SDS011;7065;50.880;5.502;2022-09-17T17:24:37;5.43;;;1.30;;
13981;SDS011;7065;50.880;5.502;2022-09-17T17:27:04;5.57;;;1.38;;
13981;SDS011;7065;50.880;5.502;2022-09-17T17:29:30;8.20;;;1.63;;
13981;SDS011;7065;50.880;5.502;2022-09-17T17:31:55;4.93;;;1.38;;
13981;SDS011;7065;50.880;5.502;2022-09-17T17:34:21;5.07;;;1.30;;
13981;SDS011;7065;50.880;5.502;2022-09-17T17:36:47;7.88;;;1.42;;
13981;SDS011;7065;50.880;5.502;2022-09-17T17:39:14;4.22;;;1.30;;
13981;SDS011;7065;50.880;5.502;2022-09-17T17:41:40;3.45;;;1.30;;
13981;SDS011;7065;50.880;5.502;2022-09-17T17:44:05;6.22;;;1.25;;
13981;SDS011;7065;50.880;5.502;2022-09-17T17:46:32;8.10;;;1.40;;
13981;SDS011;7065;50.880;5.502;2022-09-17T17:48:58;4.78;;;1.30;;
13981;SDS011;7065;50.880;5.502;2022-09-17T17:51:24;6.22;;;1.17;;
13981;SDS011;7065;50.880;5.502;2022-09-17T17:53:51;7.60;;;1.90;;
13981;SDS011;7065;50.880;5.502;2022-09-17T17:56:16;4.25;;;1.40;;
13981;SDS011;7065;50.880;5.502;2022-09-17T17:58:43;6.05;;;1.45;;
13981;SDS011;7065;50.880;5.502;2022-09-17T18:01:10;6.38;;;1.55;;
13981;SDS011;7065;50.880;5.502;2022-09-17T18:03:40;6.55;;;1.60;;
13981;SDS011;7065;50.880;5.502;2022-09-17T18:06:06;9.65;;;1.50;;
13981;SDS011;7065;50.880;5.502;2022-09-17T18:08:33;4.32;;;1.33;;
13981;SDS011;7065;50.880;5.502;2022-09-17T18:11:03;6.25;;;1.40;;
13981;SDS011;7065;50.880;5.502;2022-09-17T18:13:32;4.63;;;1.55;;
13981;SDS011;7065;50.880;5.502;2022-09-17T18:16:03;3.20;;;1.25;;
13981;SDS011;7065;50.880;5.502;2022-09-17T18:18:34;5.15;;;1.33;;
13981;SDS011;7065;50.880;5.502;2022-09-17T18:21:02;6.35;;;1.17;;
13981;SDS011;7065;50.880;5.502;2022-09-17T18:23:30;7.43;;;1.38;;
13981;SDS011;7065;50.880;5.502;2022-09-17T18:26:01;5.75;;;1.73;;
13981;SDS011;7065;50.880;5.502;2022-09-17T18:28:29;7.38;;;1.90;;
13981;SDS011;7065;50.880;5.502;2022-09-17T18:30:56;4.80;;;1.50;;
13981;SDS011;7065;50.880;5.502;2022-09-17T18:33:27;11.48;;;2.28;;